Time;durP1;ratioP1;P1;durP2;ratioP2;P2;SDS_P1;SDS_P2;PMS_P1;PMS_P2;Temp;Humidity;BMP_temperature;BMP_pressure;BME280_temperature;BME280_humidity;BME280_pressure;Samples;Min_cycle;Max_cycle;Signal;HPM_P1;HPM_P2
2022/09/22 03:02:36;;;;;;;0.70;0.60;;;9.70;76.90;;;;;;5122696;23;21100;-72
2022/09/22 03:05:03;;;;;;;0.60;0.60;;;9.70;76.80;;;;;;4937229;29;20858;-72
2022/09/22 03:07:31;;;;;;;0.60;0.60;;;9.70;76.90;;;;;;4937482;29;20448;-72
2022/09/22 03:09:57;;;;;;;0.97;0.60;;;9.70;76.80;;;;;;4937429;29;20562;-72
2022/09/22 03:12:24;;;;;;;0.80;0.63;;;9.70;76.80;;;;;;4936852;29;20471;-72
2022/09/22 03:14:51;;;;;;;0.60;0.60;;;9.70;76.90;;;;;;4938855;29;20456;-72
2022/09/22 03:17:17;;;;;;;0.70;0.60;;;9.70;76.80;;;;;;4937036;29;21003;-72
2022/09/22 03:19:45;;;;;;;0.90;0.70;;;9.70;76.80;;;;;;4936885;29;20491;-72
2022/09/22 03:22:12;;;;;;;1.43;1.33;;;9.70;76.90;;;;;;4937187;29;20468;-72
2022/09/22 03:24:38;;;;;;;0.70;0.70;;;9.60;76.90;;;;;;4937187;29;20448;-72
2022/09/22 03:27:05;;;;;;;0.73;0.70;;;9.60;76.90;;;;;;4937374;29;20452;-72
2022/09/22 03:29:32;;;;;;;1.30;0.80;;;9.60;76.90;;;;;;4937081;29;20858;-72
2022/09/22 03:31:58;;;;;;;0.60;0.50;;;9.60;77.10;;;;;;4936980;29;20480;-72
2022/09/22 03:34:25;;;;;;;0.60;0.60;;;9.50;77.20;;;;;;4936988;29;20503;-72
2022/09/22 03:36:53;;;;;;;0.90;0.70;;;9.50;77.30;;;;;;4936992;29;20452;-72
2022/09/22 03:39:20;;;;;;;0.60;0.60;;;9.50;77.30;;;;;;4936854;29;20507;-72
2022/09/22 03:41:46;;;;;;;0.77;0.77;;;9.50;77.20;;;;;;4936452;29;20893;-72
2022/09/22 03:44:13;;;;;;;0.90;0.60;;;9.50;77.20;;;;;;4936816;29;20484;-72
2022/09/22 03:46:39;;;;;;;0.70;0.60;;;9.50;77.10;;;;;;4936784;29;20503;-72
2022/09/22 03:49:07;;;;;;;0.60;0.60;;;9.50;77.30;;;;;;4936779;29;20444;-72
2022/09/22 03:51:34;;;;;;;0.60;0.60;;;9.50;77.30;;;;;;4936630;29;20568;-72
2022/09/22 03:54:02;;;;;;;0.70;0.70;;;9.50;77.30;;;;;;4936691;29;20471;-72
2022/09/22 03:56:29;;;;;;;0.70;0.70;;;9.50;77.30;;;;;;4936645;29;20502;-72
2022/09/22 03:58:55;;;;;;;1.07;0.73;;;9.40;77.60;;;;;;4936564;29;20515;-72
2022/09/22 04:01:22;;;;;;;0.60;0.60;;;9.40;77.70;;;;;;4936259;29;20547;-72
2022/09/22 04:03:49;;;;;;;0.60;0.60;;;9.40;77.50;;;;;;4936183;29;20827;-72
2022/09/22 04:06:15;;;;;;;0.70;0.70;;;9.40;77.60;;;;;;4936481;29;20535;-72
2022/09/22 04:08:42;;;;;;;0.70;0.70;;;9.40;77.60;;;;;;4936703;29;20502;-72
2022/09/22 04:11:10;;;;;;;0.60;0.60;;;9.40;77.40;;;;;;4936362;29;20564;-72
2022/09/22 04:13:37;;;;;;;0.60;0.60;;;9.40;77.50;;;;;;4936388;29;20456;-72
2022/09/22 04:16:05;;;;;;;0.73;0.60;;;9.50;77.40;;;;;;4936092;29;20944;-73
2022/09/22 04:18:31;;;;;;;0.83;0.70;;;9.50;77.20;;;;;;4936307;29;20543;-72
2022/09/22 04:20:59;;;;;;;0.70;0.60;;;9.50;77.30;;;;;;4936162;29;20487;-72
2022/09/22 04:23:26;;;;;;;0.70;0.63;;;9.40;77.30;;;;;;4935664;29;20456;-72
2022/09/22 04:25:53;;;;;;;0.60;0.60;;;9.40;77.40;;;;;;4936066;29;20876;-72
2022/09/22 04:28:21;;;;;;;0.70;0.63;;;9.50;77.40;;;;;;4936261;29;20448;-72
2022/09/22 04:30:48;;;;;;;0.80;0.70;;;9.50;77.30;;;;;;4936134;29;20520;-73
2022/09/22 04:33:15;;;;;;;0.70;0.70;;;9.50;77.40;;;;;;4936190;29;20448;-72
2022/09/22 04:35:42;;;;;;;0.70;0.70;;;9.40;77.30;;;;;;4935871;29;20859;-72
2022/09/22 04:38:09;;;;;;;0.70;0.70;;;9.40;77.40;;;;;;4935826;29;20979;-72
2022/09/22 04:40:37;;;;;;;0.70;0.70;;;9.40;77.40;;;;;;4935954;29;20484;-73
2022/09/22 04:43:03;;;;;;;0.70;0.60;;;9.40;77.50;;;;;;4936093;29;20491;-72
2022/09/22 04:45:32;;;;;;;0.77;0.77;;;9.40;77.50;;;;;;4936105;29;20483;-72
2022/09/22 04:47:58;;;;;;;0.70;0.70;;;9.40;77.40;;;;;;4935736;29;20808;-72
2022/09/22 04:50:25;;;;;;;0.70;0.70;;;9.30;77.70;;;;;;4935962;29;20444;-73
2022/09/22 04:52:54;;;;;;;0.60;0.60;;;9.30;77.70;;;;;;4936041;29;20448;-73
2022/09/22 04:55:22;;;;;;;0.70;0.60;;;9.30;77.60;;;;;;4936054;29;20487;-72
2022/09/22 04:57:49;;;;;;;0.70;0.60;;;9.30;77.60;;;;;;4935998;29;20448;-72
2022/09/22 05:00:16;;;;;;;1.23;0.73;;;9.20;77.70;;;;;;4935896;29;20484;-72
2022/09/22 05:02:44;;;;;;;0.70;0.67;;;9.20;77.70;;;;;;4935545;29;20487;-72
2022/09/22 05:05:12;;;;;;;0.60;0.60;;;9.20;77.80;;;;;;4935945;29;20448;-72
2022/09/22 05:07:41;;;;;;;0.70;0.70;;;9.20;77.90;;;;;;4935872;29;20559;-72
2022/09/22 05:10:09;;;;;;;0.60;0.60;;;9.20;78.00;;;;;;4935924;29;20448;-72
2022/09/22 05:12:39;;;;;;;0.80;0.70;;;9.20;78.30;;;;;;4936040;29;20475;-73
2022/09/22 05:15:06;;;;;;;1.60;0.90;;;9.20;78.10;;;;;;4935789;29;21014;-73
2022/09/22 05:17:34;;;;;;;0.80;0.70;;;9.20;78.30;;;;;;4935817;29;20452;-72
2022/09/22 05:20:03;;;;;;;0.70;0.67;;;9.20;78.50;;;;;;4935705;29;20483;-72
2022/09/22 05:22:29;;;;;;;0.80;0.70;;;9.20;78.50;;;;;;4935686;29;20580;-72
2022/09/22 05:24:56;;;;;;;0.70;0.70;;;9.20;78.40;;;;;;4935760;29;20452;-72
2022/09/22 05:27:23;;;;;;;0.70;0.70;;;9.30;78.50;;;;;;4935733;29;20448;-72
2022/09/22 05:29:49;;;;;;;0.60;0.60;;;9.40;78.50;;;;;;4935710;29;20452;-72
2022/09/22 05:32:16;;;;;;;0.70;0.70;;;9.40;78.50;;;;;;4935350;29;21059;-72
2022/09/22 05:34:43;;;;;;;0.70;0.70;;;9.60;78.50;;;;;;4935744;29;20451;-72
2022/09/22 05:37:11;;;;;;;0.63;0.60;;;10.10;78.10;;;;;;4939179;29;20825;-72
2022/09/22 05:39:37;;;;;;;0.80;0.70;;;10.90;76.10;;;;;;4939120;29;20507;-72
2022/09/22 05:42:04;;;;;;;0.70;0.60;;;11.80;72.80;;;;;;4938895;29;20546;-73
2022/09/22 05:44:31;;;;;;;0.70;0.70;;;12.80;70.20;;;;;;4938694;29;20809;-72
2022/09/22 05:46:57;;;;;;;0.90;0.70;;;13.80;67.20;;;;;;4938672;29;20504;-72
2022/09/22 05:49:24;;;;;;;0.70;0.70;;;14.80;63.90;;;;;;4938910;29;20448;-72
2022/09/22 05:51:54;;;;;;;0.70;0.70;;;15.60;61.60;;;;;;4938467;29;20976;-73
2022/09/22 05:54:22;;;;;;;0.70;0.70;;;15.80;60.40;;;;;;4938759;29;20448;-73
2022/09/22 05:56:49;;;;;;;0.70;0.70;;;15.60;60.40;;;;;;4938753;29;20506;-73
2022/09/22 05:59:15;;;;;;;0.63;0.60;;;15.20;61.30;;;;;;4938712;29;20582;-73
2022/09/22 06:01:42;;;;;;;0.80;0.73;;;14.60;62.70;;;;;;4938352;29;21003;-72
2022/09/22 06:04:09;;;;;;;0.70;0.70;;;14.20;64.00;;;;;;4938323;29;20507;-72
2022/09/22 06:06:35;;;;;;;0.70;0.70;;;13.80;65.30;;;;;;4938317;29;20944;-72
2022/09/22 06:09:02;;;;;;;0.70;0.70;;;13.50;66.50;;;;;;4938475;29;20456;-72
2022/09/22 06:11:30;;;;;;;0.90;0.90;;;13.50;67.20;;;;;;4938154;29;20998;-73
2022/09/22 06:13:57;;;;;;;0.60;0.60;;;13.40;67.30;;;;;;4938483;29;20456;-72
2022/09/22 06:16:23;;;;;;;2.63;0.77;;;14.00;67.30;;;;;;4938497;29;20455;-72
2022/09/22 06:18:50;;;;;;;0.70;0.70;;;15.60;64.30;;;;;;4938412;29;20452;-72
2022/09/22 06:21:17;;;;;;;0.70;0.60;;;17.60;58.00;;;;;;4937912;29;20495;-72
2022/09/22 06:23:44;;;;;;;0.63;0.63;;;19.20;53.90;;;;;;4937904;29;20459;-73
2022/09/22 06:26:11;;;;;;;0.63;0.60;;;21.00;50.80;;;;;;4938295;29;20456;-73
2022/09/22 06:28:39;;;;;;;0.60;0.60;;;22.70;47.70;;;;;;4938219;29;20456;-73
2022/09/22 06:31:06;;;;;;;0.70;0.60;;;24.20;44.60;;;;;;4938077;29;20535;-73
2022/09/22 06:33:32;;;;;;;0.70;0.60;;;25.50;42.70;;;;;;4938140;29;20479;-73
2022/09/22 06:36:00;;;;;;;0.60;0.60;;;26.60;40.60;;;;;;4938089;29;20460;-73
2022/09/22 06:38:30;;;;;;;0.60;0.60;;;27.30;39.30;;;;;;4938014;29;20456;-73
2022/09/22 06:40:59;;;;;;;0.70;0.70;;;27.50;39.20;;;;;;4937885;29;20491;-73
2022/09/22 06:43:26;;;;;;;0.70;0.60;;;27.90;37.70;;;;;;4937966;29;20459;-73
2022/09/22 06:45:58;;;;;;;0.70;0.60;;;27.60;38.30;;;;;;4937868;29;20539;-73
2022/09/22 06:48:25;;;;;;;0.70;0.60;;;28.50;37.90;;;;;;4937111;29;20532;-73
2022/09/22 06:50:53;;;;;;;0.70;0.70;;;29.20;36.60;;;;;;4937761;29;20519;-73
2022/09/22 06:53:20;;;;;;;0.90;0.70;;;29.80;36.30;;;;;;4937653;29;20847;-73
2022/09/22 06:55:47;;;;;;;0.70;0.70;;;30.30;35.10;;;;;;4937725;29;20455;-73
2022/09/22 06:58:15;;;;;;;0.93;0.80;;;30.80;34.30;;;;;;4937371;29;20452;-73
2022/09/22 07:00:42;;;;;;;0.70;0.70;;;30.60;34.30;;;;;;4937064;29;20484;-74
2022/09/22 07:03:19;;;;;;;0.70;0.60;;;30.40;34.20;;;;;;4937627;29;20441;-73
2022/09/22 07:05:53;;;;;;;0.60;0.50;;;30.90;34.30;;;;;;4937277;29;20471;-73
2022/09/22 07:08:20;;;;;;;0.80;0.70;;;30.50;34.20;;;;;;4937149;29;20881;-73
2022/09/22 07:10:52;;;;;;;0.70;0.70;;;30.00;34.70;;;;;;4937351;29;20515;-73
2022/09/22 07:13:18;;;;;;;0.67;0.63;;;30.10;35.00;;;;;;4937429;29;20444;-73
2022/09/22 07:15:45;;;;;;;0.93;0.80;;;29.60;35.70;;;;;;4937310;29;20452;-73
2022/09/22 07:18:13;;;;;;;0.90;0.90;;;28.50;36.70;;;;;;4937342;29;20493;-73
2022/09/22 07:20:44;;;;;;;0.70;0.70;;;27.50;38.40;;;;;;4937159;29;20542;-73
2022/09/22 07:23:15;;;;;;;0.90;0.60;;;25.80;40.20;;;;;;4937194;29;20559;-73
2022/09/22 07:25:42;;;;;;;0.70;0.67;;;23.90;42.80;;;;;;4937171;29;20535;-72
2022/09/22 07:28:11;;;;;;;0.80;0.80;;;22.50;45.70;;;;;;4936806;29;20794;-72
2022/09/22 07:30:39;;;;;;;0.80;0.80;;;21.90;47.30;;;;;;4936982;29;20452;-72
2022/09/22 07:33:06;;;;;;;0.70;0.70;;;21.30;48.90;;;;;;4937031;29;20455;-72
2022/09/22 07:35:36;;;;;;;0.70;0.70;;;20.20;51.30;;;;;;4937012;29;20459;-72
2022/09/22 07:38:03;;;;;;;0.70;0.70;;;19.60;52.00;;;;;;4936696;29;20504;-72
2022/09/22 07:40:30;;;;;;;0.80;0.80;;;19.20;53.50;;;;;;4936759;29;20452;-73
2022/09/22 07:42:56;;;;;;;0.80;0.70;;;18.70;53.70;;;;;;4936889;29;20448;-72
2022/09/22 07:45:23;;;;;;;0.73;0.73;;;18.50;54.40;;;;;;4936529;29;20878;-72
2022/09/22 07:50:35;;;;;;;0.93;0.87;;;17.50;56.40;;;;;;4936415;29;20873;-72
2022/09/22 07:53:02;;;;;;;0.70;0.70;;;17.30;59.00;;;;;;4936392;29;20960;-72
2022/09/22 07:55:29;;;;;;;0.80;0.80;;;17.30;58.50;;;;;;4936627;29;20524;-72
2022/09/22 07:57:57;;;;;;;0.90;0.87;;;17.30;58.30;;;;;;4936516;29;20515;-72
2022/09/22 08:00:25;;;;;;;0.80;0.80;;;17.10;58.10;;;;;;4936482;29;20507;-73
2022/09/22 08:02:54;;;;;;;0.70;0.70;;;17.00;59.50;;;;;;4936357;29;20492;-72
2022/09/22 08:05:21;;;;;;;1.17;0.70;;;16.70;60.90;;;;;;4936552;29;20889;-72
2022/09/22 08:07:50;;;;;;;0.70;0.70;;;16.50;60.30;;;;;;4936183;29;20991;-72
2022/09/22 08:10:17;;;;;;;0.77;0.77;;;16.50;60.20;;;;;;4936447;29;20456;-72
2022/09/22 08:12:44;;;;;;;0.80;0.80;;;16.50;60.20;;;;;;4937132;29;20472;-72
2022/09/22 08:15:12;;;;;;;0.70;0.70;;;16.40;60.20;;;;;;4936334;29;20488;-72
2022/09/22 08:17:39;;;;;;;0.97;0.70;;;16.30;61.50;;;;;;4936080;29;20488;-72
2022/09/22 08:20:07;;;;;;;0.77;0.77;;;16.40;61.10;;;;;;4936329;29;20447;-72
2022/09/22 08:22:34;;;;;;;0.97;0.73;;;16.00;61.90;;;;;;4936123;29;20590;-72
2022/09/22 08:25:03;;;;;;;0.80;0.80;;;15.70;62.60;;;;;;4936317;29;20499;-72
2022/09/22 08:27:30;;;;;;;0.80;0.80;;;15.90;62.30;;;;;;4935921;29;20999;-72
2022/09/22 08:29:57;;;;;;;0.80;0.80;;;15.70;62.30;;;;;;4935863;29;20516;-72
2022/09/22 08:32:25;;;;;;;0.70;0.70;;;15.40;63.40;;;;;;4936182;29;20496;-72
2022/09/22 08:34:56;;;;;;;0.70;0.70;;;15.60;63.30;;;;;;4935951;29;20956;-72
2022/09/22 08:37:26;;;;;;;0.90;0.90;;;15.60;62.60;;;;;;4936230;29;20483;-72
2022/09/22 08:39:53;;;;;;;0.70;0.70;;;15.70;61.40;;;;;;4936120;29;20467;-71
2022/09/22 08:42:22;;;;;;;0.70;0.70;;;15.40;62.20;;;;;;4936000;29;20499;-72
2022/09/22 08:44:57;;;;;;;1.20;0.83;;;15.50;63.40;;;;;;4936062;29;20463;-72
2022/09/22 08:53:08;;;;;;;0.80;0.80;;;16.20;61.50;;;;;;4914452;29;20483;-72
2022/09/22 08:55:41;;;;;;;0.90;0.90;;;16.20;60.80;;;;;;4936021;29;20487;-72
2022/09/22 08:58:23;;;;;;;1.20;0.70;;;16.20;62.40;;;;;;4935971;29;20433;-72
2022/09/22 09:01:00;;;;;;;0.70;0.70;;;16.00;60.80;;;;;;4935814;29;20487;-72
2022/09/22 09:03:33;;;;;;;0.70;0.70;;;15.90;60.40;;;;;;4935754;29;20432;-71
2022/09/22 09:06:10;;;;;;;0.67;0.63;;;15.80;62.10;;;;;;4935964;29;20778;-72
2022/09/22 09:09:00;;;;;;;0.70;0.70;;;15.70;61.80;;;;;;4936709;29;20495;-72
2022/09/22 09:11:43;;;;;;;0.80;0.70;;;15.60;61.50;;;;;;4938508;29;20470;-72
2022/09/22 09:14:25;;;;;;;0.73;0.70;;;15.50;61.50;;;;;;4940989;29;20461;-72
2022/09/22 09:16:56;;;;;;;0.70;0.70;;;15.30;63.00;;;;;;4939585;29;20435;-72
2022/09/22 09:19:32;;;;;;;0.97;0.97;;;15.30;62.90;;;;;;4939486;29;20487;-72
2022/09/22 09:22:02;;;;;;;2.50;0.70;;;15.20;63.80;;;;;;4940040;29;20562;-72
2022/09/22 09:24:32;;;;;;;0.60;0.60;;;15.30;65.20;;;;;;4939415;29;20440;-71
2022/09/22 09:27:08;;;;;;;0.67;0.67;;;15.50;64.00;;;;;;4939868;29;20503;-72
2022/09/22 09:29:41;;;;;;;0.70;0.70;;;15.50;62.70;;;;;;4939232;29;20947;-72
2022/09/22 09:32:16;;;;;;;0.70;0.70;;;15.60;63.20;;;;;;4939219;29;20468;-72
2022/09/22 09:34:43;;;;;;;0.70;0.60;;;15.80;62.10;;;;;;4939267;29;20467;-72
2022/09/22 09:37:13;;;;;;;0.70;0.70;;;15.90;62.10;;;;;;4939131;29;20532;-72
2022/09/22 09:39:43;;;;;;;0.80;0.70;;;15.90;61.60;;;;;;4939116;29;20436;-72
2022/09/22 09:42:19;;;;;;;0.80;0.63;;;15.70;62.80;;;;;;4938896;29;20542;-72
2022/09/22 09:44:52;;;;;;;0.70;0.70;;;15.70;62.20;;;;;;4938787;29;20436;-72
2022/09/22 09:47:32;;;;;;;0.80;0.70;;;15.70;62.80;;;;;;4939059;29;20444;-72
2022/09/22 09:49:59;;;;;;;0.80;0.70;;;15.70;62.20;;;;;;4938883;29;20436;-72
2022/09/22 09:52:27;;;;;;;0.80;0.70;;;15.70;62.80;;;;;;4938787;29;20849;-72
2022/09/22 09:54:54;;;;;;;0.70;0.67;;;15.30;61.90;;;;;;4938838;29;20526;-72
2022/09/22 09:57:22;;;;;;;1.37;0.70;;;15.30;62.50;;;;;;4938476;29;20793;-72
2022/09/22 10:00:31;;;;;;;0.80;0.70;;;15.40;62.50;;;;;;4938737;29;20456;-72
2022/09/22 10:03:06;;;;;;;0.70;0.70;;;15.50;63.00;;;;;;4938523;29;20971;-72
2022/09/22 10:05:36;;;;;;;0.60;0.60;;;15.50;63.10;;;;;;4938659;29;20471;-72
2022/09/22 10:08:14;;;;;;;0.70;0.70;;;15.70;62.50;;;;;;4938531;29;20542;-72
2022/09/22 10:10:41;;;;;;;0.60;0.60;;;15.80;62.20;;;;;;4938535;29;20474;-72
2022/09/22 10:13:30;;;;;;;2.90;0.67;;;15.50;61.20;;;;;;4938544;29;20654;-72
2022/09/22 10:16:21;;;;;;;0.70;0.60;;;15.40;61.40;;;;;;4938506;29;20519;-72
2022/09/22 10:18:49;;;;;;;1.10;0.60;;;15.60;62.70;;;;;;4938465;29;20428;-72
2022/09/22 10:21:18;;;;;;;0.70;0.57;;;15.80;63.30;;;;;;4937575;29;20476;-72
2022/09/22 10:23:46;;;;;;;0.67;0.50;;;15.70;60.50;;;;;;4937852;29;20451;-72
2022/09/22 10:26:18;;;;;;;0.70;0.60;;;15.70;62.50;;;;;;4938828;29;20499;-72
2022/09/22 10:28:49;;;;;;;0.70;0.60;;;15.90;61.90;;;;;;4938318;29;20430;-72
2022/09/22 10:31:23;;;;;;;0.70;0.70;;;16.10;60.60;;;;;;4938206;29;20535;-72
2022/09/22 10:33:55;;;;;;;0.60;0.50;;;16.20;61.20;;;;;;4938154;29;20461;-72
2022/09/22 10:36:24;;;;;;;0.70;0.70;;;16.40;61.90;;;;;;4938130;29;20447;-72
2022/09/22 10:38:52;;;;;;;0.60;0.60;;;16.60;61.00;;;;;;4938079;29;20452;-72
2022/09/22 10:41:24;;;;;;;1.00;0.60;;;16.70;59.40;;;;;;4937931;29;20559;-72
2022/09/22 10:43:55;;;;;;;0.60;0.60;;;16.70;59.80;;;;;;4937975;29;20539;-72
2022/09/22 10:46:37;;;;;;;0.70;0.60;;;16.80;59.30;;;;;;4938010;29;20437;-72
2022/09/22 10:49:11;;;;;;;0.67;0.60;;;16.80;58.60;;;;;;4937957;29;20433;-72
2022/09/22 10:51:54;;;;;;;0.60;0.60;;;16.30;59.90;;;;;;4937857;29;20812;-72
2022/09/22 10:54:50;;;;;;;0.60;0.60;;;16.20;59.70;;;;;;4938066;29;20445;-72
2022/09/22 10:57:31;;;;;;;0.60;0.60;;;16.30;60.90;;;;;;4935063;29;20515;-72
2022/09/22 11:00:09;;;;;;;0.60;0.50;;;16.60;60.40;;;;;;4937716;29;20428;-72
2022/09/22 11:03:06;;;;;;;0.60;0.60;;;16.60;59.30;;;;;;4937397;29;20503;-72
2022/09/22 11:14:16;;;;;;;0.60;0.60;;;17.10;57.90;;;;;;4937818;29;20422;-71
2022/09/22 11:17:00;;;;;;;0.60;0.60;;;17.10;57.90;;;;;;4937717;29;20955;-72
2022/09/22 11:20:02;;;;;;;0.70;0.70;;;17.10;58.40;;;;;;4938017;29;20459;-72
2022/09/22 11:22:43;;;;;;;0.60;0.53;;;17.50;58.00;;;;;;4906681;29;21031;-72
2022/09/22 11:25:27;;;;;;;0.70;0.70;;;17.30;56.20;;;;;;4938113;29;20810;-72
2022/09/22 11:28:12;;;;;;;0.70;0.60;;;17.40;56.60;;;;;;4937641;29;20935;-71
2022/09/22 11:30:45;;;;;;;0.60;0.50;;;17.70;54.90;;;;;;4938362;29;20479;-72
2022/09/22 11:33:58;;;;;;;0.97;0.60;;;17.80;53.80;;;;;;4937907;29;20439;-72
2022/09/22 11:36:33;;;;;;;1.13;0.70;;;18.00;54.50;;;;;;4938781;29;20499;-72
2022/09/22 11:39:33;;;;;;;0.67;0.60;;;18.00;54.70;;;;;;4938584;29;20440;-72
2022/09/22 11:42:12;;;;;;;0.60;0.57;;;18.20;54.60;;;;;;4938632;29;20521;-72
2022/09/22 11:44:42;;;;;;;0.70;0.60;;;18.30;53.60;;;;;;4938545;29;20479;-72
2022/09/22 11:47:26;;;;;;;0.70;0.57;;;18.40;53.40;;;;;;4938856;29;20464;-72
2022/09/22 11:50:22;;;;;;;0.60;0.50;;;18.60;52.50;;;;;;4939208;29;20447;-72
2022/09/22 11:53:14;;;;;;;0.70;0.50;;;18.60;53.00;;;;;;4938576;29;20455;-72
2022/09/22 11:55:53;;;;;;;1.40;0.70;;;18.80;53.10;;;;;;4938501;29;20456;-72
2022/09/22 11:58:23;;;;;;;0.70;0.60;;;19.00;51.60;;;;;;4938540;29;20436;-73
2022/09/22 12:00:53;;;;;;;0.60;0.50;;;19.10;52.20;;;;;;4938150;29;20484;-72
2022/09/22 12:03:25;;;;;;;0.70;0.50;;;19.30;51.70;;;;;;4938073;29;20503;-72
2022/09/22 12:05:54;;;;;;;0.70;0.60;;;19.40;50.30;;;;;;4937733;29;20436;-72
2022/09/22 12:08:23;;;;;;;0.60;0.50;;;19.30;49.50;;;;;;4937882;29;20463;-71
2022/09/22 12:10:52;;;;;;;0.70;0.60;;;19.00;48.80;;;;;;4936978;29;20999;-73
2022/09/22 12:13:22;;;;;;;0.70;0.60;;;18.70;50.30;;;;;;4937639;29;20459;-73
2022/09/22 12:16:01;;;;;;;0.60;0.50;;;18.80;51.50;;;;;;4937647;29;20640;-73
2022/09/22 12:18:34;;;;;;;0.70;0.63;;;19.00;50.00;;;;;;4937859;29;20440;-72
2022/09/22 12:21:05;;;;;;;0.60;0.50;;;19.30;51.20;;;;;;4937525;29;20483;-72
2022/09/22 12:23:40;;;;;;;0.70;0.50;;;19.60;50.00;;;;;;4937240;29;20472;-72
2022/09/22 12:26:10;;;;;;;0.70;0.50;;;19.50;49.60;;;;;;4936798;29;20464;-72
2022/09/22 12:28:40;;;;;;;0.60;0.50;;;19.40;50.50;;;;;;4936941;29;20519;-72
2022/09/22 12:31:11;;;;;;;0.60;0.50;;;19.50;49.10;;;;;;4936562;29;20472;-72
2022/09/22 12:33:46;;;;;;;0.70;0.53;;;19.50;48.60;;;;;;4937096;29;20440;-72
2022/09/22 12:36:13;;;;;;;0.70;0.50;;;19.50;49.10;;;;;;4936885;29;20522;-72
2022/09/22 12:38:41;;;;;;;0.60;0.50;;;19.50;50.20;;;;;;4936818;29;20790;-72
2022/09/22 12:41:09;;;;;;;0.60;0.53;;;19.40;50.20;;;;;;4937320;29;20476;-72
2022/09/22 12:43:36;;;;;;;0.67;0.60;;;19.40;51.00;;;;;;4936905;29;20492;-72
2022/09/22 12:46:12;;;;;;;0.67;0.60;;;19.50;50.30;;;;;;4939185;29;20452;-72
2022/09/22 12:48:39;;;;;;;0.60;0.50;;;19.70;49.20;;;;;;4941143;29;20603;-72
2022/09/22 12:51:32;;;;;;;0.60;0.50;;;19.50;49.50;;;;;;4941195;29;20900;-72
2022/09/22 12:54:46;;;;;;;0.63;0.57;;;19.60;49.70;;;;;;4937645;29;20804;-73
2022/09/22 12:57:29;;;;;;;0.60;0.50;;;20.10;49.80;;;;;;4940143;29;20932;-73
2022/09/22 13:00:19;;;;;;;1.23;0.60;;;20.40;49.60;;;;;;4939855;29;20885;-72
2022/09/22 13:02:48;;;;;;;0.70;0.50;;;20.60;49.40;;;;;;4939534;29;20568;-72
2022/09/22 13:05:35;;;;;;;0.60;0.50;;;20.80;48.70;;;;;;4939656;29;20827;-72
2022/09/22 13:08:03;;;;;;;0.60;0.50;;;20.80;47.50;;;;;;4940539;29;20456;-72
2022/09/22 13:10:54;;;;;;;0.60;0.57;;;20.60;47.10;;;;;;4939864;29;20470;-72
2022/09/22 13:13:35;;;;;;;0.60;0.60;;;20.40;46.60;;;;;;4939643;29;20451;-73
2022/09/22 13:16:03;;;;;;;0.60;0.50;;;20.30;47.40;;;;;;4939560;29;20443;-72
2022/09/22 13:18:32;;;;;;;0.70;0.50;;;20.60;48.20;;;;;;4939541;29;20519;-72
2022/09/22 13:21:00;;;;;;;1.57;0.53;;;20.50;47.70;;;;;;4939279;29;20982;-72
2022/09/22 13:23:27;;;;;;;0.70;0.60;;;20.30;47.70;;;;;;4939369;29;20495;-72
2022/09/22 13:26:05;;;;;;;0.60;0.60;;;20.00;47.90;;;;;;4940005;29;20452;-72
2022/09/22 13:28:33;;;;;;;0.70;0.50;;;20.00;47.80;;;;;;4940531;29;20757;-72
2022/09/22 13:31:02;;;;;;;0.90;0.50;;;19.80;48.30;;;;;;4939471;29;21063;-73
2022/09/22 13:33:33;;;;;;;0.60;0.50;;;20.10;47.80;;;;;;4939675;29;20451;-72
2022/09/22 13:36:04;;;;;;;0.60;0.60;;;20.60;47.60;;;;;;4939631;29;20419;-73
2022/09/22 13:38:34;;;;;;;0.60;0.50;;;20.80;46.30;;;;;;4939328;29;20927;-72
2022/09/22 13:41:03;;;;;;;0.60;0.50;;;20.30;47.10;;;;;;4939663;29;20850;-72
2022/09/22 13:43:34;;;;;;;0.70;0.60;;;20.30;47.60;;;;;;4939111;29;20556;-73
2022/09/22 13:46:02;;;;;;;0.70;0.60;;;20.60;47.50;;;;;;4939474;29;20491;-73
2022/09/22 13:48:33;;;;;;;0.60;0.50;;;21.00;48.20;;;;;;4939326;29;20454;-72
2022/09/22 13:51:03;;;;;;;0.60;0.50;;;21.20;46.00;;;;;;4939163;29;20476;-72
2022/09/22 13:53:30;;;;;;;0.60;0.50;;;21.40;45.90;;;;;;4939253;29;20490;-72
2022/09/22 13:55:58;;;;;;;0.60;0.50;;;21.60;45.70;;;;;;4938945;29;20460;-73
2022/09/22 13:58:33;;;;;;;0.60;0.60;;;21.80;44.90;;;;;;4940086;29;20452;-73
2022/09/22 14:01:03;;;;;;;0.60;0.50;;;22.30;43.90;;;;;;4938775;29;20575;-73
2022/09/22 14:03:37;;;;;;;0.60;0.50;;;22.80;44.30;;;;;;4939210;29;20478;-73
2022/09/22 14:06:05;;;;;;;0.60;0.50;;;23.40;43.90;;;;;;4939416;29;20447;-72
2022/09/22 14:08:33;;;;;;;0.60;0.60;;;24.10;41.50;;;;;;4938575;29;20448;-72
2022/09/22 14:11:01;;;;;;;0.60;0.50;;;25.00;41.00;;;;;;4938432;29;20468;-73
2022/09/22 14:13:42;;;;;;;0.60;0.53;;;26.40;38.60;;;;;;4938245;29;20962;-73
2022/09/22 14:16:14;;;;;;;0.60;0.60;;;28.20;35.50;;;;;;4938426;29;20542;-73
2022/09/22 14:18:45;;;;;;;0.70;0.60;;;29.40;34.80;;;;;;4938496;29;20437;-73
2022/09/22 14:21:12;;;;;;;0.70;0.60;;;29.80;33.20;;;;;;4938344;29;20539;-72
2022/09/22 14:23:44;;;;;;;0.90;0.50;;;30.70;33.00;;;;;;4937977;29;20484;-73
2022/09/22 14:26:33;;;;;;;0.70;0.50;;;31.70;31.80;;;;;;4938376;29;20436;-73
2022/09/22 14:29:09;;;;;;;0.60;0.50;;;32.30;31.40;;;;;;4938015;29;20999;-73
2022/09/22 14:31:40;;;;;;;0.60;0.50;;;33.10;31.20;;;;;;4938199;29;20479;-73
2022/09/22 14:34:09;;;;;;;0.60;0.50;;;34.20;29.50;;;;;;4938128;29;20524;-73
2022/09/22 14:36:36;;;;;;;0.60;0.50;;;33.70;29.20;;;;;;4938160;29;20552;-72
2022/09/22 14:39:04;;;;;;;0.60;0.50;;;32.70;29.50;;;;;;4938089;29;20448;-72
2022/09/22 14:41:35;;;;;;;0.60;0.50;;;32.00;30.20;;;;;;4937955;29;20512;-73
2022/09/22 14:44:17;;;;;;;0.63;0.57;;;31.20;31.00;;;;;;4937958;29;20471;-72
2022/09/22 14:46:45;;;;;;;0.70;0.60;;;31.20;31.60;;;;;;4937797;29;20511;-73
2022/09/22 14:49:39;;;;;;;0.60;0.57;;;30.80;32.40;;;;;;4937941;29;20503;-73
2022/09/22 14:52:13;;;;;;;0.60;0.50;;;31.00;31.70;;;;;;4937430;29;20840;-73
2022/09/22 14:54:42;;;;;;;0.60;0.50;;;30.50;31.40;;;;;;4937878;29;20443;-73
2022/09/22 14:57:08;;;;;;;0.60;0.57;;;29.90;32.40;;;;;;4937845;29;20455;-73
2022/09/22 15:02:34;;;;;;;0.60;0.50;;;30.50;32.70;;;;;;4917722;29;20491;-73
2022/09/22 15:05:03;;;;;;;0.60;0.50;;;30.60;32.00;;;;;;4937594;29;20508;-73
2022/09/22 15:07:32;;;;;;;0.60;0.60;;;30.10;32.50;;;;;;4936760;29;21040;-73
2022/09/22 15:10:01;;;;;;;0.60;0.57;;;29.20;33.00;;;;;;4937595;29;20456;-72
2022/09/22 15:12:36;;;;;;;0.60;0.50;;;29.00;33.20;;;;;;4937385;29;20487;-73
2022/09/22 15:15:13;;;;;;;0.60;0.50;;;28.40;34.30;;;;;;4938940;29;20448;-72
2022/09/22 15:20:33;;;;;;;0.67;0.60;;;25.70;37.50;;;;;;4937458;29;20903;-72
2022/09/22 15:23:01;;;;;;;0.70;0.60;;;24.00;39.50;;;;;;4937101;29;20468;-72
2022/09/22 15:25:28;;;;;;;0.70;0.50;;;22.70;41.90;;;;;;4937252;29;20500;-73
2022/09/22 15:27:55;;;;;;;0.60;0.50;;;21.70;43.40;;;;;;4937166;29;20448;-72
2022/09/22 15:30:22;;;;;;;0.60;0.50;;;21.00;44.80;;;;;;4937217;29;20458;-72
2022/09/22 15:32:50;;;;;;;0.60;0.60;;;20.40;46.60;;;;;;4936838;29;20452;-72
2022/09/22 15:35:17;;;;;;;0.60;0.50;;;20.10;46.80;;;;;;4937060;29;20456;-72
2022/09/22 15:37:47;;;;;;;0.60;0.60;;;20.10;46.80;;;;;;4937004;29;20452;-72
2022/09/22 15:40:16;;;;;;;0.60;0.50;;;20.00;47.40;;;;;;4936897;29;20452;-72
2022/09/22 15:42:44;;;;;;;1.33;0.60;;;19.70;47.80;;;;;;4936842;29;20519;-72
2022/09/22 15:45:13;;;;;;;0.70;0.50;;;19.50;48.20;;;;;;4936469;29;20898;-72
2022/09/22 15:47:40;;;;;;;0.60;0.60;;;19.40;48.40;;;;;;4936823;29;20543;-72
2022/09/22 15:50:16;;;;;;;0.60;0.60;;;19.30;48.10;;;;;;4936825;29;20482;-72
2022/09/22 15:52:43;;;;;;;0.60;0.50;;;19.20;48.60;;;;;;4936735;29;20471;-73
2022/09/22 15:55:13;;;;;;;0.60;0.50;;;19.10;49.10;;;;;;4936992;29;20547;-72
2022/09/22 15:57:41;;;;;;;0.90;0.60;;;18.90;49.50;;;;;;4936417;29;20448;-72
2022/09/22 16:00:14;;;;;;;0.67;0.60;;;18.70;50.20;;;;;;4936292;29;20828;-72
2022/09/22 16:02:41;;;;;;;0.60;0.50;;;18.70;50.10;;;;;;4936199;29;20910;-72
2022/09/22 16:05:11;;;;;;;0.60;0.50;;;18.50;50.70;;;;;;4936542;29;20494;-72
2022/09/22 16:07:39;;;;;;;0.70;0.60;;;18.60;50.60;;;;;;4936557;29;20452;-71
2022/09/22 16:10:08;;;;;;;0.60;0.60;;;18.40;50.90;;;;;;4936479;29;20452;-72
2022/09/22 16:12:34;;;;;;;0.60;0.53;;;18.30;51.60;;;;;;4936419;29;20478;-72
2022/09/22 16:15:01;;;;;;;0.70;0.60;;;18.20;51.70;;;;;;4938531;29;20890;-72
2022/09/22 16:17:28;;;;;;;0.60;0.50;;;18.30;52.00;;;;;;4936433;29;20459;-72
2022/09/22 16:19:55;;;;;;;0.60;0.50;;;18.40;51.90;;;;;;4936338;29;20508;-72
2022/09/22 16:22:24;;;;;;;0.70;0.60;;;18.40;51.80;;;;;;4936310;29;20472;-72
2022/09/22 16:24:50;;;;;;;0.70;0.60;;;18.30;51.90;;;;;;4935970;29;20483;-72
2022/09/22 16:27:17;;;;;;;0.60;0.60;;;18.30;52.20;;;;;;4936327;29;20487;-72
2022/09/22 16:29:44;;;;;;;1.07;0.60;;;18.40;52.00;;;;;;4936332;29;20503;-72
2022/09/22 16:32:10;;;;;;;0.70;0.60;;;18.20;52.30;;;;;;4936341;29;20472;-72